sensor_id;sensor_type;location;lat;lon;timestamp;P1;durP1;ratioP1;P2;durP2;ratioP2
21591;SDS011;10958;50.892;3.992;2022-11-15T00:01:20;26.17;;;17.92;;
21591;SDS011;10958;50.892;3.992;2022-11-15T00:03:46;30.38;;;18.48;;
21591;SDS011;10958;50.892;3.992;2022-11-15T00:06:16;28.40;;;18.42;;
21591;SDS011;10958;50.892;3.992;2022-11-15T00:08:45;28.95;;;17.73;;
21591;SDS011;10958;50.892;3.992;2022-11-15T00:11:11;26.45;;;18.23;;
21591;SDS011;10958;50.892;3.992;2022-11-15T00:13:38;29.50;;;18.92;;
21591;SDS011;10958;50.892;3.992;2022-11-15T00:16:04;25.60;;;17.58;;
21591;SDS011;10958;50.892;3.992;2022-11-15T00:18:30;25.90;;;17.70;;
21591;SDS011;10958;50.892;3.992;2022-11-15T00:20:56;27.10;;;18.30;;
21591;SDS011;10958;50.892;3.992;2022-11-15T00:23:28;24.48;;;17.10;;
21591;SDS011;10958;50.892;3.992;2022-11-15T00:25:57;28.45;;;17.88;;
21591;SDS011;10958;50.892;3.992;2022-11-15T00:28:26;27.35;;;17.70;;
21591;SDS011;10958;50.892;3.992;2022-11-15T00:30:52;29.02;;;17.77;;
21591;SDS011;10958;50.892;3.992;2022-11-15T00:33:18;27.33;;;16.30;;
21591;SDS011;10958;50.892;3.992;2022-11-15T00:35:44;24.60;;;17.17;;
21591;SDS011;10958;50.892;3.992;2022-11-15T00:38:10;23.80;;;16.05;;
21591;SDS011;10958;50.892;3.992;2022-11-15T00:40:35;30.35;;;16.90;;
21591;SDS011;10958;50.892;3.992;2022-11-15T00:43:01;28.90;;;17.05;;
21591;SDS011;10958;50.892;3.992;2022-11-15T00:45:27;23.65;;;16.83;;
21591;SDS011;10958;50.892;3.992;2022-11-15T00:47:52;24.50;;;15.68;;
21591;SDS011;10958;50.892;3.992;2022-11-15T00:50:21;23.33;;;16.20;;
21591;SDS011;10958;50.892;3.992;2022-11-15T00:52:49;17.80;;;12.57;;
21591;SDS011;10958;50.892;3.992;2022-11-15T00:55:16;27.02;;;16.15;;
21591;SDS011;10958;50.892;3.992;2022-11-15T00:57:46;21.17;;;15.38;;
21591;SDS011;10958;50.892;3.992;2022-11-15T01:00:12;23.30;;;16.27;;
21591;SDS011;10958;50.892;3.992;2022-11-15T01:02:38;19.77;;;14.48;;
21591;SDS011;10958;50.892;3.992;2022-11-15T01:05:04;25.60;;;15.73;;
21591;SDS011;10958;50.892;3.992;2022-11-15T01:07:33;22.55;;;15.27;;
21591;SDS011;10958;50.892;3.992;2022-11-15T01:09:59;25.58;;;15.85;;
21591;SDS011;10958;50.892;3.992;2022-11-15T01:12:24;24.00;;;15.52;;
21591;SDS011;10958;50.892;3.992;2022-11-15T01:14:50;23.42;;;15.55;;
21591;SDS011;10958;50.892;3.992;2022-11-15T01:17:16;22.75;;;14.98;;
21591;SDS011;10958;50.892;3.992;2022-11-15T01:19:42;26.67;;;16.25;;
21591;SDS011;10958;50.892;3.992;2022-11-15T01:22:08;24.50;;;15.65;;
21591;SDS011;10958;50.892;3.992;2022-11-15T01:24:33;22.15;;;14.85;;
21591;SDS011;10958;50.892;3.992;2022-11-15T01:26:59;22.58;;;15.25;;
21591;SDS011;10958;50.892;3.992;2022-11-15T01:29:25;21.35;;;14.73;;
21591;SDS011;10958;50.892;3.992;2022-11-15T01:31:52;22.42;;;15.10;;
21591;SDS011;10958;50.892;3.992;2022-11-15T01:34:18;21.15;;;14.98;;
21591;SDS011;10958;50.892;3.992;2022-11-15T01:36:44;24.25;;;16.33;;
21591;SDS011;10958;50.892;3.992;2022-11-15T01:39:09;28.08;;;15.48;;
21591;SDS011;10958;50.892;3.992;2022-11-15T01:41:35;22.92;;;15.38;;
21591;SDS011;10958;50.892;3.992;2022-11-15T01:47:09;24.52;;;15.05;;
21591;SDS011;10958;50.892;3.992;2022-11-15T01:52:20;23.73;;;15.43;;
21591;SDS011;10958;50.892;3.992;2022-11-15T01:54:50;22.52;;;14.32;;
21591;SDS011;10958;50.892;3.992;2022-11-15T01:57:38;21.13;;;14.52;;
21591;SDS011;10958;50.892;3.992;2022-11-15T02:00:06;20.80;;;14.27;;
21591;SDS011;10958;50.892;3.992;2022-11-15T02:02:33;21.40;;;14.07;;
21591;SDS011;10958;50.892;3.992;2022-11-15T02:05:03;26.65;;;15.48;;
21591;SDS011;10958;50.892;3.992;2022-11-15T02:07:29;26.00;;;14.98;;
21591;SDS011;10958;50.892;3.992;2022-11-15T02:10:07;20.52;;;14.90;;
21591;SDS011;10958;50.892;3.992;2022-11-15T02:12:43;22.45;;;14.90;;
21591;SDS011;10958;50.892;3.992;2022-11-15T02:15:09;20.58;;;15.15;;
21591;SDS011;10958;50.892;3.992;2022-11-15T02:17:51;24.42;;;14.38;;
21591;SDS011;10958;50.892;3.992;2022-11-15T02:20:55;21.23;;;14.13;;
21591;SDS011;10958;50.892;3.992;2022-11-15T02:23:53;21.38;;;13.15;;
21591;SDS011;10958;50.892;3.992;2022-11-15T02:41:04;19.25;;;12.77;;
21591;SDS011;10958;50.892;3.992;2022-11-15T02:44:17;20.23;;;12.93;;
21591;SDS011;10958;50.892;3.992;2022-11-15T02:46:57;22.95;;;13.55;;
21591;SDS011;10958;50.892;3.992;2022-11-15T02:49:40;20.73;;;13.55;;
21591;SDS011;10958;50.892;3.992;2022-11-15T02:52:08;18.83;;;13.52;;
21591;SDS011;10958;50.892;3.992;2022-11-15T02:54:39;21.55;;;12.48;;
21591;SDS011;10958;50.892;3.992;2022-11-15T02:57:15;22.45;;;13.45;;
21591;SDS011;10958;50.892;3.992;2022-11-15T02:59:47;20.98;;;11.90;;
21591;SDS011;10958;50.892;3.992;2022-11-15T03:02:32;19.23;;;11.80;;
21591;SDS011;10958;50.892;3.992;2022-11-15T03:05:19;19.95;;;11.95;;
21591;SDS011;10958;50.892;3.992;2022-11-15T03:13:07;16.52;;;11.65;;
21591;SDS011;10958;50.892;3.992;2022-11-15T03:15:50;17.02;;;11.45;;
21591;SDS011;10958;50.892;3.992;2022-11-15T03:18:29;17.70;;;10.70;;
21591;SDS011;10958;50.892;3.992;2022-11-15T03:20:59;15.77;;;11.50;;
21591;SDS011;10958;50.892;3.992;2022-11-15T03:23:28;20.77;;;11.95;;
21591;SDS011;10958;50.892;3.992;2022-11-15T03:25:55;17.25;;;11.52;;
21591;SDS011;10958;50.892;3.992;2022-11-15T03:28:28;18.13;;;11.15;;
21591;SDS011;10958;50.892;3.992;2022-11-15T03:31:02;18.52;;;10.93;;
21591;SDS011;10958;50.892;3.992;2022-11-15T03:33:50;21.35;;;10.82;;
21591;SDS011;10958;50.892;3.992;2022-11-15T03:36:22;17.90;;;10.07;;
21591;SDS011;10958;50.892;3.992;2022-11-15T03:38:50;15.30;;;9.77;;
21591;SDS011;10958;50.892;3.992;2022-11-15T03:41:28;16.20;;;9.07;;
21591;SDS011;10958;50.892;3.992;2022-11-15T03:44:14;17.38;;;8.73;;
21591;SDS011;10958;50.892;3.992;2022-11-15T03:47:12;16.98;;;9.68;;
21591;SDS011;10958;50.892;3.992;2022-11-15T03:49:46;15.88;;;9.35;;
21591;SDS011;10958;50.892;3.992;2022-11-15T03:52:19;11.50;;;8.40;;
21591;SDS011;10958;50.892;3.992;2022-11-15T03:54:49;11.02;;;8.15;;
21591;SDS011;10958;50.892;3.992;2022-11-15T03:57:21;12.95;;;8.65;;
21591;SDS011;10958;50.892;3.992;2022-11-15T03:59:47;16.30;;;8.25;;
21591;SDS011;10958;50.892;3.992;2022-11-15T04:02:13;15.75;;;8.77;;
21591;SDS011;10958;50.892;3.992;2022-11-15T04:04:39;14.90;;;7.72;;
21591;SDS011;10958;50.892;3.992;2022-11-15T04:07:05;16.17;;;8.05;;
21591;SDS011;10958;50.892;3.992;2022-11-15T04:09:31;15.13;;;7.85;;
21591;SDS011;10958;50.892;3.992;2022-11-15T04:11:57;14.75;;;7.97;;
21591;SDS011;10958;50.892;3.992;2022-11-15T04:14:23;17.52;;;8.75;;
21591;SDS011;10958;50.892;3.992;2022-11-15T04:16:49;19.05;;;8.07;;
21591;SDS011;10958;50.892;3.992;2022-11-15T04:19:14;17.83;;;8.65;;
21591;SDS011;10958;50.892;3.992;2022-11-15T04:22:01;12.25;;;7.72;;
21591;SDS011;10958;50.892;3.992;2022-11-15T04:24:45;17.23;;;7.53;;
21591;SDS011;10958;50.892;3.992;2022-11-15T04:27:10;11.60;;;6.53;;
21591;SDS011;10958;50.892;3.992;2022-11-15T04:29:38;14.27;;;7.88;;
21591;SDS011;10958;50.892;3.992;2022-11-15T04:32:05;14.75;;;7.00;;
21591;SDS011;10958;50.892;3.992;2022-11-15T04:34:31;10.65;;;6.38;;
21591;SDS011;10958;50.892;3.992;2022-11-15T04:37:00;12.15;;;7.00;;
21591;SDS011;10958;50.892;3.992;2022-11-15T04:39:40;13.45;;;6.82;;
21591;SDS011;10958;50.892;3.992;2022-11-15T04:42:08;10.52;;;5.30;;
21591;SDS011;10958;50.892;3.992;2022-11-15T04:44:35;13.13;;;6.50;;
21591;SDS011;10958;50.892;3.992;2022-11-15T04:47:02;11.60;;;6.13;;
21591;SDS011;10958;50.892;3.992;2022-11-15T04:49:28;14.73;;;6.20;;
21591;SDS011;10958;50.892;3.992;2022-11-15T04:51:56;7.83;;;5.17;;
21591;SDS011;10958;50.892;3.992;2022-11-15T04:54:22;10.98;;;5.93;;
21591;SDS011;10958;50.892;3.992;2022-11-15T04:56:49;11.50;;;5.90;;
21591;SDS011;10958;50.892;3.992;2022-11-15T04:59:17;11.70;;;6.65;;
21591;SDS011;10958;50.892;3.992;2022-11-15T05:01:44;15.85;;;5.78;;
21591;SDS011;10958;50.892;3.992;2022-11-15T05:04:10;12.80;;;5.68;;
21591;SDS011;10958;50.892;3.992;2022-11-15T05:06:46;11.50;;;5.18;;
21591;SDS011;10958;50.892;3.992;2022-11-15T05:09:18;8.98;;;4.95;;
21591;SDS011;10958;50.892;3.992;2022-11-15T05:11:44;9.32;;;4.53;;
21591;SDS011;10958;50.892;3.992;2022-11-15T05:14:10;9.18;;;4.95;;
21591;SDS011;10958;50.892;3.992;2022-11-15T05:16:36;11.05;;;4.50;;
21591;SDS011;10958;50.892;3.992;2022-11-15T05:19:03;7.00;;;3.95;;
21591;SDS011;10958;50.892;3.992;2022-11-15T05:21:29;8.73;;;4.40;;
21591;SDS011;10958;50.892;3.992;2022-11-15T05:23:55;9.63;;;4.00;;
21591;SDS011;10958;50.892;3.992;2022-11-15T05:26:21;7.93;;;3.83;;
21591;SDS011;10958;50.892;3.992;2022-11-15T05:28:51;10.82;;;3.90;;
21591;SDS011;10958;50.892;3.992;2022-11-15T05:31:24;10.70;;;4.18;;
21591;SDS011;10958;50.892;3.992;2022-11-15T05:33:51;8.63;;;3.85;;
21591;SDS011;10958;50.892;3.992;2022-11-15T05:38:52;10.50;;;3.45;;
21591;SDS011;10958;50.892;3.992;2022-11-15T05:41:20;7.97;;;3.55;;
21591;SDS011;10958;50.892;3.992;2022-11-15T05:43:58;5.95;;;3.50;;
21591;SDS011;10958;50.892;3.992;2022-11-15T05:46:26;7.47;;;3.60;;
21591;SDS011;10958;50.892;3.992;2022-11-15T05:48:54;8.25;;;4.30;;
21591;SDS011;10958;50.892;3.992;2022-11-15T05:51:21;9.00;;;3.58;;
21591;SDS011;10958;50.892;3.992;2022-11-15T05:53:52;10.00;;;4.35;;
21591;SDS011;10958;50.892;3.992;2022-11-15T05:56:21;8.57;;;3.80;;
21591;SDS011;10958;50.892;3.992;2022-11-15T05:58:47;8.68;;;4.15;;
21591;SDS011;10958;50.892;3.992;2022-11-15T06:01:13;7.90;;;4.18;;
21591;SDS011;10958;50.892;3.992;2022-11-15T06:03:41;6.30;;;3.90;;
21591;SDS011;10958;50.892;3.992;2022-11-15T06:06:07;8.93;;;4.10;;
21591;SDS011;10958;50.892;3.992;2022-11-15T06:08:34;6.22;;;3.88;;
21591;SDS011;10958;50.892;3.992;2022-11-15T06:11:03;8.82;;;3.78;;
21591;SDS011;10958;50.892;3.992;2022-11-15T06:13:32;8.25;;;3.78;;
21591;SDS011;10958;50.892;3.992;2022-11-15T06:15:59;8.35;;;3.85;;
21591;SDS011;10958;50.892;3.992;2022-11-15T06:18:25;7.72;;;3.88;;
21591;SDS011;10958;50.892;3.992;2022-11-15T06:20:53;6.75;;;4.25;;
21591;SDS011;10958;50.892;3.992;2022-11-15T06:23:19;9.40;;;3.85;;
21591;SDS011;10958;50.892;3.992;2022-11-15T06:25:57;8.60;;;3.90;;
21591;SDS011;10958;50.892;3.992;2022-11-15T06:28:24;12.07;;;4.40;;
21591;SDS011;10958;50.892;3.992;2022-11-15T06:30:50;8.23;;;4.05;;
21591;SDS011;10958;50.892;3.992;2022-11-15T06:33:15;7.40;;;3.70;;
21591;SDS011;10958;50.892;3.992;2022-11-15T06:35:41;7.35;;;3.85;;
21591;SDS011;10958;50.892;3.992;2022-11-15T06:38:09;7.72;;;3.95;;
21591;SDS011;10958;50.892;3.992;2022-11-15T06:40:38;8.73;;;4.22;;
21591;SDS011;10958;50.892;3.992;2022-11-15T06:43:09;11.00;;;3.90;;
21591;SDS011;10958;50.892;3.992;2022-11-15T06:45:41;7.00;;;3.70;;
21591;SDS011;10958;50.892;3.992;2022-11-15T06:48:07;7.63;;;3.65;;
21591;SDS011;10958;50.892;3.992;2022-11-15T06:50:33;8.48;;;3.80;;
21591;SDS011;10958;50.892;3.992;2022-11-15T06:53:07;6.28;;;3.92;;
21591;SDS011;10958;50.892;3.992;2022-11-15T06:55:33;5.25;;;3.65;;
21591;SDS011;10958;50.892;3.992;2022-11-15T06:58:02;9.63;;;3.45;;
21591;SDS011;10958;50.892;3.992;2022-11-15T07:00:28;6.30;;;4.18;;
21591;SDS011;10958;50.892;3.992;2022-11-15T07:02:54;9.05;;;4.40;;
21591;SDS011;10958;50.892;3.992;2022-11-15T07:05:22;8.77;;;3.80;;
21591;SDS011;10958;50.892;3.992;2022-11-15T07:07:53;11.32;;;4.60;;
21591;SDS011;10958;50.892;3.992;2022-11-15T07:10:20;9.18;;;4.28;;
21591;SDS011;10958;50.892;3.992;2022-11-15T07:12:49;9.45;;;4.93;;
21591;SDS011;10958;50.892;3.992;2022-11-15T07:15:16;8.80;;;4.95;;
21591;SDS011;10958;50.892;3.992;2022-11-15T07:17:43;10.52;;;4.78;;
21591;SDS011;10958;50.892;3.992;2022-11-15T07:20:08;8.45;;;5.10;;
21591;SDS011;10958;50.892;3.992;2022-11-15T07:22:34;8.80;;;5.22;;
21591;SDS011;10958;50.892;3.992;2022-11-15T07:25:00;16.67;;;5.43;;
21591;SDS011;10958;50.892;3.992;2022-11-15T07:27:26;8.05;;;4.88;;
21591;SDS011;10958;50.892;3.992;2022-11-15T07:29:52;6.53;;;4.82;;
21591;SDS011;10958;50.892;3.992;2022-11-15T07:32:18;7.25;;;4.88;;
21591;SDS011;10958;50.892;3.992;2022-11-15T07:37:36;10.60;;;5.93;;
21591;SDS011;10958;50.892;3.992;2022-11-15T07:40:04;10.63;;;6.15;;
21591;SDS011;10958;50.892;3.992;2022-11-15T07:42:31;10.52;;;5.55;;
21591;SDS011;10958;50.892;3.992;2022-11-15T07:45:23;12.15;;;5.82;;
21591;SDS011;10958;50.892;3.992;2022-11-15T07:47:52;10.82;;;4.90;;
21591;SDS011;10958;50.892;3.992;2022-11-15T07:50:18;11.27;;;5.47;;
21591;SDS011;10958;50.892;3.992;2022-11-15T07:52:44;13.32;;;5.80;;
21591;SDS011;10958;50.892;3.992;2022-11-15T07:55:10;9.00;;;4.55;;
21591;SDS011;10958;50.892;3.992;2022-11-15T07:57:41;7.18;;;4.20;;
21591;SDS011;10958;50.892;3.992;2022-11-15T08:00:07;5.07;;;3.25;;
21591;SDS011;10958;50.892;3.992;2022-11-15T08:02:34;5.78;;;3.00;;
21591;SDS011;10958;50.892;3.992;2022-11-15T08:05:09;10.95;;;3.65;;
21591;SDS011;10958;50.892;3.992;2022-11-15T08:07:34;8.60;;;3.00;;
21591;SDS011;10958;50.892;3.992;2022-11-15T08:10:00;6.88;;;2.90;;
21591;SDS011;10958;50.892;3.992;2022-11-15T08:12:27;6.38;;;2.72;;
21591;SDS011;10958;50.892;3.992;2022-11-15T08:14:56;6.28;;;2.70;;
21591;SDS011;10958;50.892;3.992;2022-11-15T08:17:24;7.22;;;3.03;;
21591;SDS011;10958;50.892;3.992;2022-11-15T08:19:50;8.50;;;2.50;;
21591;SDS011;10958;50.892;3.992;2022-11-15T08:22:17;5.53;;;2.33;;
21591;SDS011;10958;50.892;3.992;2022-11-15T08:24:43;5.85;;;2.65;;
21591;SDS011;10958;50.892;3.992;2022-11-15T08:27:10;4.90;;;1.90;;
21591;SDS011;10958;50.892;3.992;2022-11-15T08:29:42;5.57;;;2.28;;
21591;SDS011;10958;50.892;3.992;2022-11-15T08:32:15;6.93;;;1.80;;
21591;SDS011;10958;50.892;3.992;2022-11-15T08:34:41;4.22;;;1.65;;
21591;SDS011;10958;50.892;3.992;2022-11-15T08:37:07;6.68;;;2.10;;
21591;SDS011;10958;50.892;3.992;2022-11-15T08:39:33;3.67;;;1.50;;
21591;SDS011;10958;50.892;3.992;2022-11-15T08:41:59;5.07;;;1.77;;
21591;SDS011;10958;50.892;3.992;2022-11-15T08:44:25;4.53;;;1.38;;
21591;SDS011;10958;50.892;3.992;2022-11-15T08:46:51;7.72;;;1.63;;
21591;SDS011;10958;50.892;3.992;2022-11-15T08:49:17;8.68;;;1.60;;
21591;SDS011;10958;50.892;3.992;2022-11-15T08:51:43;5.88;;;1.80;;
21591;SDS011;10958;50.892;3.992;2022-11-15T08:54:09;3.83;;;1.63;;
21591;SDS011;10958;50.892;3.992;2022-11-15T08:56:35;4.80;;;2.00;;
21591;SDS011;10958;50.892;3.992;2022-11-15T08:59:00;6.68;;;1.77;;
21591;SDS011;10958;50.892;3.992;2022-11-15T09:01:26;4.53;;;1.65;;
21591;SDS011;10958;50.892;3.992;2022-11-15T09:03:52;5.50;;;1.50;;
21591;SDS011;10958;50.892;3.992;2022-11-15T09:06:18;5.97;;;1.60;;
21591;SDS011;10958;50.892;3.992;2022-11-15T09:08:46;3.10;;;1.40;;
21591;SDS011;10958;50.892;3.992;2022-11-15T09:11:14;5.70;;;1.42;;
21591;SDS011;10958;50.892;3.992;2022-11-15T09:13:41;3.42;;;1.15;;
21591;SDS011;10958;50.892;3.992;2022-11-15T09:16:07;6.95;;;1.50;;
21591;SDS011;10958;50.892;3.992;2022-11-15T09:18:33;6.93;;;1.40;;
21591;SDS011;10958;50.892;3.992;2022-11-15T09:21:00;7.72;;;1.33;;
21591;SDS011;10958;50.892;3.992;2022-11-15T09:23:27;6.72;;;1.10;;
21591;SDS011;10958;50.892;3.992;2022-11-15T09:25:57;5.45;;;1.20;;
21591;SDS011;10958;50.892;3.992;2022-11-15T09:28:25;3.15;;;0.90;;
21591;SDS011;10958;50.892;3.992;2022-11-15T09:30:51;3.85;;;1.15;;
21591;SDS011;10958;50.892;3.992;2022-11-15T09:33:20;4.95;;;1.33;;
21591;SDS011;10958;50.892;3.992;2022-11-15T09:35:46;10.13;;;1.85;;
21591;SDS011;10958;50.892;3.992;2022-11-15T09:38:12;4.97;;;1.20;;
21591;SDS011;10958;50.892;3.992;2022-11-15T09:40:38;4.00;;;1.42;;
21591;SDS011;10958;50.892;3.992;2022-11-15T09:46:51;8.90;;;1.52;;
21591;SDS011;10958;50.892;3.992;2022-11-15T09:48:59;6.43;;;1.40;;
21591;SDS011;10958;50.892;3.992;2022-11-15T09:51:31;2.40;;;1.23;;
21591;SDS011;10958;50.892;3.992;2022-11-15T09:54:04;2.80;;;1.10;;
21591;SDS011;10958;50.892;3.992;2022-11-15T09:56:39;7.45;;;1.20;;
21591;SDS011;10958;50.892;3.992;2022-11-15T10:05:03;8.10;;;1.38;;
21591;SDS011;10958;50.892;3.992;2022-11-15T10:07:34;6.20;;;1.38;;
21591;SDS011;10958;50.892;3.992;2022-11-15T10:10:27;6.13;;;1.40;;
21591;SDS011;10958;50.892;3.992;2022-11-15T10:12:53;3.63;;;1.20;;
21591;SDS011;10958;50.892;3.992;2022-11-15T10:15:31;7.65;;;1.35;;
21591;SDS011;10958;50.892;3.992;2022-11-15T10:20:47;6.88;;;1.33;;
21591;SDS011;10958;50.892;3.992;2022-11-15T10:23:21;6.80;;;1.33;;
21591;SDS011;10958;50.892;3.992;2022-11-15T10:25:50;5.40;;;1.30;;
21591;SDS011;10958;50.892;3.992;2022-11-15T10:28:23;6.00;;;1.30;;
21591;SDS011;10958;50.892;3.992;2022-11-15T10:30:59;6.90;;;1.30;;
21591;SDS011;10958;50.892;3.992;2022-11-15T10:33:31;4.80;;;1.52;;
21591;SDS011;10958;50.892;3.992;2022-11-15T10:41:22;9.02;;;1.20;;
21591;SDS011;10958;50.892;3.992;2022-11-15T10:46:32;5.10;;;1.35;;
21591;SDS011;10958;50.892;3.992;2022-11-15T10:49:20;7.07;;;1.50;;
21591;SDS011;10958;50.892;3.992;2022-11-15T10:51:54;4.70;;;1.23;;
21591;SDS011;10958;50.892;3.992;2022-11-15T10:57:12;11.57;;;1.73;;
21591;SDS011;10958;50.892;3.992;2022-11-15T10:59:42;7.18;;;1.50;;
21591;SDS011;10958;50.892;3.992;2022-11-15T11:03:57;6.28;;;1.42;;
21591;SDS011;10958;50.892;3.992;2022-11-15T11:06:27;7.07;;;1.27;;
21591;SDS011;10958;50.892;3.992;2022-11-15T11:08:55;5.53;;;1.40;;
21591;SDS011;10958;50.892;3.992;2022-11-15T11:11:24;9.15;;;1.42;;
21591;SDS011;10958;50.892;3.992;2022-11-15T11:13:51;3.92;;;1.13;;
21591;SDS011;10958;50.892;3.992;2022-11-15T11:16:22;8.07;;;1.20;;
21591;SDS011;10958;50.892;3.992;2022-11-15T11:19:14;4.32;;;0.90;;
21591;SDS011;10958;50.892;3.992;2022-11-15T11:30:20;5.25;;;1.00;;
21591;SDS011;10958;50.892;3.992;2022-11-15T11:46:55;4.72;;;0.95;;
21591;SDS011;10958;50.892;3.992;2022-11-15T11:49:31;6.07;;;1.42;;
21591;SDS011;10958;50.892;3.992;2022-11-15T11:52:24;2.90;;;0.73;;
21591;SDS011;10958;50.892;3.992;2022-11-15T11:55:12;4.93;;;0.98;;
21591;SDS011;10958;50.892;3.992;2022-11-15T12:00:29;4.20;;;0.95;;
21591;SDS011;10958;50.892;3.992;2022-11-15T12:03:18;5.50;;;1.40;;
21591;SDS011;10958;50.892;3.992;2022-11-15T12:11:22;3.83;;;0.98;;
21591;SDS011;10958;50.892;3.992;2022-11-15T12:13:42;3.10;;;0.90;;
21591;SDS011;10958;50.892;3.992;2022-11-15T12:16:20;5.25;;;1.23;;
21591;SDS011;10958;50.892;3.992;2022-11-15T12:19:01;6.13;;;1.48;;
21591;SDS011;10958;50.892;3.992;2022-11-15T12:21:48;3.90;;;1.00;;
21591;SDS011;10958;50.892;3.992;2022-11-15T12:24:26;2.63;;;0.90;;
21591;SDS011;10958;50.892;3.992;2022-11-15T12:29:35;2.38;;;0.85;;
21591;SDS011;10958;50.892;3.992;2022-11-15T12:32:17;4.18;;;1.10;;
21591;SDS011;10958;50.892;3.992;2022-11-15T12:34:53;2.33;;;1.00;;
21591;SDS011;10958;50.892;3.992;2022-11-15T12:42:42;3.10;;;1.23;;
21591;SDS011;10958;50.892;3.992;2022-11-15T12:45:37;2.65;;;1.10;;
21591;SDS011;10958;50.892;3.992;2022-11-15T12:51:18;4.80;;;1.00;;
21591;SDS011;10958;50.892;3.992;2022-11-15T13:08:55;3.85;;;1.00;;
21591;SDS011;10958;50.892;3.992;2022-11-15T13:16:46;3.33;;;1.08;;
21591;SDS011;10958;50.892;3.992;2022-11-15T13:22:13;6.68;;;1.20;;
21591;SDS011;10958;50.892;3.992;2022-11-15T13:35:51;3.00;;;1.13;;
21591;SDS011;10958;50.892;3.992;2022-11-15T13:38:41;3.60;;;0.90;;
21591;SDS011;10958;50.892;3.992;2022-11-15T13:41:45;8.77;;;1.30;;
21591;SDS011;10958;50.892;3.992;2022-11-15T13:44:30;2.53;;;1.23;;
21591;SDS011;10958;50.892;3.992;2022-11-15T13:47:14;4.38;;;1.23;;
21591;SDS011;10958;50.892;3.992;2022-11-15T13:49:47;2.67;;;1.30;;
21591;SDS011;10958;50.892;3.992;2022-11-15T13:55:47;3.25;;;1.50;;
21591;SDS011;10958;50.892;3.992;2022-11-15T13:58:23;3.28;;;1.85;;
21591;SDS011;10958;50.892;3.992;2022-11-15T14:00:59;4.32;;;1.75;;
21591;SDS011;10958;50.892;3.992;2022-11-15T14:03:32;5.22;;;1.88;;
21591;SDS011;10958;50.892;3.992;2022-11-15T14:06:15;2.97;;;1.48;;
21591;SDS011;10958;50.892;3.992;2022-11-15T14:09:00;3.30;;;1.27;;
21591;SDS011;10958;50.892;3.992;2022-11-15T14:11:30;5.13;;;2.08;;
21591;SDS011;10958;50.892;3.992;2022-11-15T14:16:54;2.90;;;1.38;;
21591;SDS011;10958;50.892;3.992;2022-11-15T14:28:11;4.25;;;1.33;;
21591;SDS011;10958;50.892;3.992;2022-11-15T14:31:06;2.80;;;1.40;;
21591;SDS011;10958;50.892;3.992;2022-11-15T14:36:30;3.72;;;1.70;;
21591;SDS011;10958;50.892;3.992;2022-11-15T14:39:11;3.50;;;2.05;;
21591;SDS011;10958;50.892;3.992;2022-11-15T14:41:57;3.42;;;1.70;;
21591;SDS011;10958;50.892;3.992;2022-11-15T14:44:25;2.70;;;1.38;;
21591;SDS011;10958;50.892;3.992;2022-11-15T14:46:58;3.60;;;1.38;;
21591;SDS011;10958;50.892;3.992;2022-11-15T14:49:24;5.18;;;1.40;;
21591;SDS011;10958;50.892;3.992;2022-11-15T14:51:53;3.95;;;1.95;;
21591;SDS011;10958;50.892;3.992;2022-11-15T14:54:25;4.18;;;1.42;;
21591;SDS011;10958;50.892;3.992;2022-11-15T14:57:08;3.20;;;1.35;;
21591;SDS011;10958;50.892;3.992;2022-11-15T14:59:44;2.65;;;1.70;;
21591;SDS011;10958;50.892;3.992;2022-11-15T15:02:14;3.85;;;2.15;;
21591;SDS011;10958;50.892;3.992;2022-11-15T15:05:00;3.75;;;2.08;;
21591;SDS011;10958;50.892;3.992;2022-11-15T15:07:49;3.95;;;1.90;;
21591;SDS011;10958;50.892;3.992;2022-11-15T15:10:19;5.53;;;2.90;;
21591;SDS011;10958;50.892;3.992;2022-11-15T15:13:05;7.10;;;2.17;;
21591;SDS011;10958;50.892;3.992;2022-11-15T15:15:53;4.00;;;2.38;;
21591;SDS011;10958;50.892;3.992;2022-11-15T15:18:28;3.20;;;2.08;;
21591;SDS011;10958;50.892;3.992;2022-11-15T15:20:55;6.90;;;3.95;;
21591;SDS011;10958;50.892;3.992;2022-11-15T15:23:27;5.32;;;2.35;;
21591;SDS011;10958;50.892;3.992;2022-11-15T15:28:42;5.78;;;2.47;;
21591;SDS011;10958;50.892;3.992;2022-11-15T15:31:13;2.05;;;1.80;;
21591;SDS011;10958;50.892;3.992;2022-11-15T15:33:40;4.55;;;2.72;;
21591;SDS011;10958;50.892;3.992;2022-11-15T15:36:13;3.08;;;1.88;;
21591;SDS011;10958;50.892;3.992;2022-11-15T15:38:43;3.10;;;2.08;;
21591;SDS011;10958;50.892;3.992;2022-11-15T15:41:26;3.85;;;2.25;;
21591;SDS011;10958;50.892;3.992;2022-11-15T15:50:41;2.83;;;1.90;;
21591;SDS011;10958;50.892;3.992;2022-11-15T15:53:17;3.35;;;2.22;;
21591;SDS011;10958;50.892;3.992;2022-11-15T15:55:45;5.78;;;2.08;;
21591;SDS011;10958;50.892;3.992;2022-11-15T16:00:53;2.75;;;2.13;;
21591;SDS011;10958;50.892;3.992;2022-11-15T16:03:25;3.92;;;2.40;;
21591;SDS011;10958;50.892;3.992;2022-11-15T16:05:58;3.38;;;2.50;;
21591;SDS011;10958;50.892;3.992;2022-11-15T16:08:30;4.30;;;2.22;;
21591;SDS011;10958;50.892;3.992;2022-11-15T16:10:56;3.67;;;2.65;;
21591;SDS011;10958;50.892;3.992;2022-11-15T16:13:50;4.75;;;2.95;;
21591;SDS011;10958;50.892;3.992;2022-11-15T16:16:21;6.78;;;3.83;;
21591;SDS011;10958;50.892;3.992;2022-11-15T16:19:10;5.32;;;3.17;;
21591;SDS011;10958;50.892;3.992;2022-11-15T16:21:39;4.55;;;2.45;;
21591;SDS011;10958;50.892;3.992;2022-11-15T16:24:11;6.30;;;3.15;;
21591;SDS011;10958;50.892;3.992;2022-11-15T16:26:37;5.57;;;3.00;;
21591;SDS011;10958;50.892;3.992;2022-11-15T16:29:10;3.17;;;2.80;;
21591;SDS011;10958;50.892;3.992;2022-11-15T16:31:37;5.45;;;2.92;;
21591;SDS011;10958;50.892;3.992;2022-11-15T16:34:03;4.75;;;3.05;;
21591;SDS011;10958;50.892;3.992;2022-11-15T16:36:33;5.22;;;3.38;;
21591;SDS011;10958;50.892;3.992;2022-11-15T16:39:03;12.50;;;8.50;;
21591;SDS011;10958;50.892;3.992;2022-11-15T16:41:36;9.43;;;6.70;;
21591;SDS011;10958;50.892;3.992;2022-11-15T16:44:08;4.65;;;3.63;;
21591;SDS011;10958;50.892;3.992;2022-11-15T16:49:33;3.95;;;2.83;;
21591;SDS011;10958;50.892;3.992;2022-11-15T16:52:10;6.88;;;3.75;;
21591;SDS011;10958;50.892;3.992;2022-11-15T16:55:14;12.50;;;7.32;;
21591;SDS011;10958;50.892;3.992;2022-11-15T16:58:03;10.70;;;8.13;;
21591;SDS011;10958;50.892;3.992;2022-11-15T17:00:57;15.65;;;12.40;;
21591;SDS011;10958;50.892;3.992;2022-11-15T17:03:40;10.85;;;9.68;;
21591;SDS011;10958;50.892;3.992;2022-11-15T17:06:07;4.50;;;3.25;;
21591;SDS011;10958;50.892;3.992;2022-11-15T17:08:51;6.28;;;3.40;;
21591;SDS011;10958;50.892;3.992;2022-11-15T17:11:19;5.82;;;3.80;;
21591;SDS011;10958;50.892;3.992;2022-11-15T17:13:46;5.35;;;4.05;;
21591;SDS011;10958;50.892;3.992;2022-11-15T17:16:16;7.07;;;3.42;;
21591;SDS011;10958;50.892;3.992;2022-11-15T17:18:49;4.50;;;3.63;;
21591;SDS011;10958;50.892;3.992;2022-11-15T17:21:16;6.25;;;3.25;;
21591;SDS011;10958;50.892;3.992;2022-11-15T17:23:44;6.15;;;3.50;;
21591;SDS011;10958;50.892;3.992;2022-11-15T17:26:11;5.43;;;3.58;;
21591;SDS011;10958;50.892;3.992;2022-11-15T17:28:41;5.75;;;3.67;;
21591;SDS011;10958;50.892;3.992;2022-11-15T17:31:11;4.20;;;3.20;;
21591;SDS011;10958;50.892;3.992;2022-11-15T17:33:44;5.18;;;3.67;;
21591;SDS011;10958;50.892;3.992;2022-11-15T17:36:38;10.50;;;4.65;;
21591;SDS011;10958;50.892;3.992;2022-11-15T17:39:07;7.65;;;4.32;;
21591;SDS011;10958;50.892;3.992;2022-11-15T17:41:39;7.57;;;6.55;;
21591;SDS011;10958;50.892;3.992;2022-11-15T17:44:05;5.55;;;3.95;;
21591;SDS011;10958;50.892;3.992;2022-11-15T17:46:34;7.95;;;4.70;;
21591;SDS011;10958;50.892;3.992;2022-11-15T17:49:13;5.78;;;3.63;;
21591;SDS011;10958;50.892;3.992;2022-11-15T17:51:44;4.70;;;3.90;;